Aviation Digital Data Service (ADDS)

Output produced by TAFs form (1128 UTC 19 January 2018)
found at http://www.aviationweather.gov/adds/tafs/
 
ROAH 191100Z 05008KT 9999 -SHRA FEW005 SCT015 BKN035 16/15 Q1018 RMK 2ST005 4CU015 5CU035 A3008
TAF ROAH 191105Z 1912/2018 03012KT 9000 FEW008 BKN015 
     TEMPO 1912/1918 3000 SHRA BR FEW005 BKN008